Strona główna
METAR-TAF:

METAR-TAF

Lotnisko :

Port lotniczy Svalbard

Longyearbyen, Norwegia

Szerokość geograficzna: 78-15N, Długość geograficzna: 015-28E, wysokość: 2 m

Aktualna obserwacja pogody

Raport powstał 25 minut temu, godzina 23:50 UTC
Wiatr 11 kt od zachód
Temperatura 6°C
Wilgotność 87%
Ciśnienie 998 hPa
Widzialność 10 km lub więcej
Mało chmury na wysokości 600 ft
Przerywane chmury na wysokości 2800 ft

METAR: ENSB 242350Z 26011KT 9999 FEW006 BKN028 06/04 Q0998 RMK WIND 1400FT 23003KT

czas: 02:15 (00:15 UTC)

Prognoza

Prognoza ważna od 25 godzina 00 UTC do 25 godzina 24 UTC
Wiatr 9 kt od zachodnio-południowy zachód
Widzialność 10 km lub więcej
Mało chmury na wysokości 500 ft
Przerywane chmury na wysokości 2500 ft
Prawdopodobieństwo 40% :
Przejściowo
od 25 godzina 00 UTC do 25 godzina 12 UTC
Widzialność: 4000 m
Przerywane chmury na wysokości 1200 ft
deszcz, mżawka

TAF: ENSB 2500/2524 24009KT 9999 FEW005 BKN025 PROB40 TEMPO 2500/2512 4000 RADZ BKN012

Obserwacja i prognoza pogody dla ponad 4000 lotnisk (raport METAR i TAF).

Dostępne stacje oznaczono żółtymi i czerwonymi punktami na mapie.

Najedź kursorem aby zobaczyć nazwę stacji.

Kliknij aby zobaczyć obserwacje i prognozy pogody.

Aby zmienić mapę: kliknij na zielony przycisk z czarnym krzyżykiem, aby powiększyć; na zielony przycisk z myślnikiem, aby pomniejszyć; na zielone strzałki, aby przejść do map sąsiednich.


METAR-TAF: